sensor_id;sensor_type;location;lat;lon;timestamp;P1;durP1;ratioP1;P2;durP2;ratioP2
70715;SDS011;59053;50.832;12.882;2022-12-05T00:04:05;38.63;;;15.83;;
70715;SDS011;59053;50.832;12.882;2022-12-05T00:06:31;38.15;;;16.67;;
70715;SDS011;59053;50.832;12.882;2022-12-05T00:08:57;42.33;;;16.83;;
70715;SDS011;59053;50.832;12.882;2022-12-05T00:11:27;44.70;;;17.00;;
70715;SDS011;59053;50.832;12.882;2022-12-05T00:13:52;45.42;;;17.10;;
70715;SDS011;59053;50.832;12.882;2022-12-05T00:16:19;44.83;;;16.67;;
70715;SDS011;59053;50.832;12.882;2022-12-05T00:18:45;43.67;;;17.33;;
70715;SDS011;59053;50.832;12.882;2022-12-05T00:21:11;43.53;;;17.50;;
70715;SDS011;59053;50.832;12.882;2022-12-05T00:23:37;41.10;;;16.58;;
70715;SDS011;59053;50.832;12.882;2022-12-05T00:26:02;41.77;;;16.63;;
70715;SDS011;59053;50.832;12.882;2022-12-05T00:28:28;37.50;;;15.80;;
70715;SDS011;59053;50.832;12.882;2022-12-05T00:30:53;41.23;;;16.57;;
70715;SDS011;59053;50.832;12.882;2022-12-05T00:33:18;40.37;;;16.13;;
70715;SDS011;59053;50.832;12.882;2022-12-05T00:35:43;38.93;;;16.03;;
70715;SDS011;59053;50.832;12.882;2022-12-05T00:38:08;43.70;;;16.40;;
70715;SDS011;59053;50.832;12.882;2022-12-05T00:40:34;42.60;;;16.17;;
70715;SDS011;59053;50.832;12.882;2022-12-05T00:43:00;41.25;;;16.60;;
70715;SDS011;59053;50.832;12.882;2022-12-05T00:45:25;36.13;;;15.27;;
70715;SDS011;59053;50.832;12.882;2022-12-05T00:47:50;39.00;;;15.87;;
70715;SDS011;59053;50.832;12.882;2022-12-05T00:50:15;40.90;;;16.00;;
70715;SDS011;59053;50.832;12.882;2022-12-05T00:52:41;38.33;;;14.70;;
70715;SDS011;59053;50.832;12.882;2022-12-05T00:55:06;37.20;;;14.97;;
70715;SDS011;59053;50.832;12.882;2022-12-05T00:57:31;37.50;;;15.23;;
70715;SDS011;59053;50.832;12.882;2022-12-05T00:59:57;41.30;;;15.30;;
70715;SDS011;59053;50.832;12.882;2022-12-05T01:02:22;39.30;;;14.07;;
70715;SDS011;59053;50.832;12.882;2022-12-05T01:04:47;41.17;;;14.53;;
70715;SDS011;59053;50.832;12.882;2022-12-05T01:07:12;38.77;;;14.77;;
70715;SDS011;59053;50.832;12.882;2022-12-05T01:09:38;41.07;;;14.83;;
70715;SDS011;59053;50.832;12.882;2022-12-05T01:12:03;40.67;;;15.10;;
70715;SDS011;59053;50.832;12.882;2022-12-05T01:14:28;40.00;;;14.83;;
70715;SDS011;59053;50.832;12.882;2022-12-05T01:16:54;39.60;;;14.70;;
70715;SDS011;59053;50.832;12.882;2022-12-05T01:19:21;34.65;;;14.32;;
70715;SDS011;59053;50.832;12.882;2022-12-05T01:21:46;35.95;;;13.95;;
70715;SDS011;59053;50.832;12.882;2022-12-05T01:24:12;33.93;;;13.77;;
70715;SDS011;59053;50.832;12.882;2022-12-05T01:26:38;29.75;;;12.50;;
70715;SDS011;59053;50.832;12.882;2022-12-05T01:29:04;34.07;;;13.43;;
70715;SDS011;59053;50.832;12.882;2022-12-05T01:31:30;34.95;;;13.18;;
70715;SDS011;59053;50.832;12.882;2022-12-05T01:33:56;31.10;;;12.60;;
70715;SDS011;59053;50.832;12.882;2022-12-05T01:36:22;33.38;;;12.75;;
70715;SDS011;59053;50.832;12.882;2022-12-05T01:38:48;30.23;;;12.65;;
70715;SDS011;59053;50.832;12.882;2022-12-05T01:41:15;29.50;;;12.27;;
70715;SDS011;59053;50.832;12.882;2022-12-05T01:46:22;28.05;;;13.45;;
70715;SDS011;59053;50.832;12.882;2022-12-05T01:48:47;29.20;;;12.32;;
70715;SDS011;59053;50.832;12.882;2022-12-05T01:51:13;34.30;;;13.75;;
70715;SDS011;59053;50.832;12.882;2022-12-05T01:53:38;32.87;;;13.27;;
70715;SDS011;59053;50.832;12.882;2022-12-05T01:56:04;30.37;;;12.03;;
70715;SDS011;59053;50.832;12.882;2022-12-05T01:58:30;29.50;;;11.80;;
70715;SDS011;59053;50.832;12.882;2022-12-05T02:00:57;33.55;;;12.82;;
70715;SDS011;59053;50.832;12.882;2022-12-05T02:03:22;30.27;;;12.47;;
70715;SDS011;59053;50.832;12.882;2022-12-05T02:05:49;29.97;;;12.80;;
70715;SDS011;59053;50.832;12.882;2022-12-05T02:08:15;30.92;;;12.18;;
70715;SDS011;59053;50.832;12.882;2022-12-05T02:10:41;31.53;;;12.30;;
70715;SDS011;59053;50.832;12.882;2022-12-05T02:13:17;32.20;;;12.77;;
70715;SDS011;59053;50.832;12.882;2022-12-05T02:15:49;29.67;;;12.30;;
70715;SDS011;59053;50.832;12.882;2022-12-05T02:42:36;24.10;;;10.43;;
70715;SDS011;59053;50.832;12.882;2022-12-05T02:44:43;25.95;;;10.23;;
70715;SDS011;59053;50.832;12.882;2022-12-05T02:47:09;24.17;;;10.23;;
70715;SDS011;59053;50.832;12.882;2022-12-05T02:49:36;24.58;;;10.05;;
70715;SDS011;59053;50.832;12.882;2022-12-05T02:52:05;22.70;;;9.88;;
70715;SDS011;59053;50.832;12.882;2022-12-05T02:54:32;24.15;;;10.57;;
70715;SDS011;59053;50.832;12.882;2022-12-05T02:56:59;23.92;;;10.02;;
70715;SDS011;59053;50.832;12.882;2022-12-05T02:59:25;29.87;;;11.27;;
70715;SDS011;59053;50.832;12.882;2022-12-05T03:01:50;26.63;;;10.20;;
70715;SDS011;59053;50.832;12.882;2022-12-05T03:04:16;24.95;;;10.05;;
70715;SDS011;59053;50.832;12.882;2022-12-05T03:06:50;23.47;;;10.13;;
70715;SDS011;59053;50.832;12.882;2022-12-05T03:09:18;24.35;;;10.35;;
70715;SDS011;59053;50.832;12.882;2022-12-05T03:11:46;24.13;;;10.00;;
70715;SDS011;59053;50.832;12.882;2022-12-05T03:14:12;24.73;;;10.10;;
70715;SDS011;59053;50.832;12.882;2022-12-05T03:16:46;24.38;;;10.15;;
70715;SDS011;59053;50.832;12.882;2022-12-05T03:19:20;26.50;;;10.87;;
70715;SDS011;59053;50.832;12.882;2022-12-05T03:21:54;23.90;;;10.63;;
70715;SDS011;59053;50.832;12.882;2022-12-05T03:24:20;27.65;;;10.73;;
70715;SDS011;59053;50.832;12.882;2022-12-05T03:26:50;27.50;;;11.13;;
70715;SDS011;59053;50.832;12.882;2022-12-05T03:29:24;27.17;;;11.13;;
70715;SDS011;59053;50.832;12.882;2022-12-05T03:36:57;31.65;;;12.38;;
70715;SDS011;59053;50.832;12.882;2022-12-05T03:39:27;33.45;;;12.63;;
70715;SDS011;59053;50.832;12.882;2022-12-05T03:41:58;53.50;;;18.80;;
70715;SDS011;59053;50.832;12.882;2022-12-05T03:47:13;72.13;;;21.10;;
70715;SDS011;59053;50.832;12.882;2022-12-05T03:49:42;74.32;;;23.60;;
70715;SDS011;59053;50.832;12.882;2022-12-05T03:52:13;72.03;;;21.77;;
70715;SDS011;59053;50.832;12.882;2022-12-05T03:54:50;78.53;;;22.40;;
70715;SDS011;59053;50.832;12.882;2022-12-05T03:57:26;76.97;;;23.67;;
70715;SDS011;59053;50.832;12.882;2022-12-05T03:59:58;81.40;;;22.90;;
70715;SDS011;59053;50.832;12.882;2022-12-05T04:02:31;83.75;;;24.20;;
70715;SDS011;59053;50.832;12.882;2022-12-05T04:05:00;84.53;;;24.02;;
70715;SDS011;59053;50.832;12.882;2022-12-05T04:07:26;86.47;;;25.40;;
70715;SDS011;59053;50.832;12.882;2022-12-05T04:09:56;81.80;;;22.95;;
70715;SDS011;59053;50.832;12.882;2022-12-05T04:12:24;90.30;;;25.48;;
70715;SDS011;59053;50.832;12.882;2022-12-05T04:14:52;89.43;;;24.45;;
70715;SDS011;59053;50.832;12.882;2022-12-05T04:17:20;94.93;;;24.65;;
70715;SDS011;59053;50.832;12.882;2022-12-05T04:19:54;79.13;;;23.63;;
70715;SDS011;59053;50.832;12.882;2022-12-05T04:22:39;83.95;;;23.48;;
70715;SDS011;59053;50.832;12.882;2022-12-05T04:25:07;86.13;;;23.15;;
70715;SDS011;59053;50.832;12.882;2022-12-05T04:30:39;83.63;;;23.77;;
70715;SDS011;59053;50.832;12.882;2022-12-05T04:33:08;82.13;;;22.95;;
70715;SDS011;59053;50.832;12.882;2022-12-05T04:38:05;83.38;;;24.25;;
70715;SDS011;59053;50.832;12.882;2022-12-05T04:40:34;84.67;;;23.80;;
70715;SDS011;59053;50.832;12.882;2022-12-05T04:43:01;90.22;;;25.08;;
70715;SDS011;59053;50.832;12.882;2022-12-05T04:45:26;81.53;;;23.27;;
70715;SDS011;59053;50.832;12.882;2022-12-05T04:47:54;78.10;;;23.23;;
70715;SDS011;59053;50.832;12.882;2022-12-05T04:50:21;80.38;;;22.30;;
70715;SDS011;59053;50.832;12.882;2022-12-05T04:52:47;72.63;;;23.33;;
70715;SDS011;59053;50.832;12.882;2022-12-05T04:55:14;71.53;;;22.33;;
70715;SDS011;59053;50.832;12.882;2022-12-05T05:00:25;75.32;;;22.90;;
70715;SDS011;59053;50.832;12.882;2022-12-05T05:03:06;75.60;;;22.13;;
70715;SDS011;59053;50.832;12.882;2022-12-05T05:05:33;78.63;;;23.48;;
70715;SDS011;59053;50.832;12.882;2022-12-05T05:07:59;76.77;;;22.40;;
70715;SDS011;59053;50.832;12.882;2022-12-05T05:10:36;69.45;;;21.40;;
70715;SDS011;59053;50.832;12.882;2022-12-05T05:13:03;75.32;;;22.45;;
70715;SDS011;59053;50.832;12.882;2022-12-05T05:15:28;69.67;;;22.87;;
70715;SDS011;59053;50.832;12.882;2022-12-05T05:17:54;79.97;;;21.60;;
70715;SDS011;59053;50.832;12.882;2022-12-05T05:20:19;70.00;;;20.53;;
70715;SDS011;59053;50.832;12.882;2022-12-05T05:22:52;69.20;;;21.63;;
70715;SDS011;59053;50.832;12.882;2022-12-05T05:25:18;69.33;;;21.00;;
70715;SDS011;59053;50.832;12.882;2022-12-05T05:27:46;68.10;;;21.17;;
70715;SDS011;59053;50.832;12.882;2022-12-05T05:30:11;69.82;;;20.10;;
70715;SDS011;59053;50.832;12.882;2022-12-05T05:32:37;72.97;;;21.07;;
70715;SDS011;59053;50.832;12.882;2022-12-05T05:35:02;73.83;;;20.97;;
70715;SDS011;59053;50.832;12.882;2022-12-05T05:37:27;66.30;;;20.87;;
70715;SDS011;59053;50.832;12.882;2022-12-05T05:39:52;66.30;;;20.17;;
70715;SDS011;59053;50.832;12.882;2022-12-05T05:42:18;68.07;;;20.97;;
70715;SDS011;59053;50.832;12.882;2022-12-05T05:44:43;74.77;;;20.70;;
70715;SDS011;59053;50.832;12.882;2022-12-05T05:47:08;63.37;;;20.13;;
70715;SDS011;59053;50.832;12.882;2022-12-05T05:49:33;63.73;;;19.80;;
70715;SDS011;59053;50.832;12.882;2022-12-05T05:51:59;62.57;;;19.63;;
70715;SDS011;59053;50.832;12.882;2022-12-05T05:54:24;67.13;;;20.17;;
70715;SDS011;59053;50.832;12.882;2022-12-05T05:56:49;68.67;;;21.03;;
70715;SDS011;59053;50.832;12.882;2022-12-05T05:59:15;63.93;;;19.80;;
70715;SDS011;59053;50.832;12.882;2022-12-05T06:01:40;76.17;;;20.97;;
70715;SDS011;59053;50.832;12.882;2022-12-05T06:04:05;63.10;;;20.70;;
70715;SDS011;59053;50.832;12.882;2022-12-05T06:06:31;62.42;;;20.60;;
70715;SDS011;59053;50.832;12.882;2022-12-05T06:08:57;66.43;;;20.00;;
70715;SDS011;59053;50.832;12.882;2022-12-05T06:11:28;68.54;;;21.08;;
70715;SDS011;59053;50.832;12.882;2022-12-05T06:13:54;64.07;;;20.70;;
70715;SDS011;59053;50.832;12.882;2022-12-05T06:16:19;62.08;;;19.75;;
70715;SDS011;59053;50.832;12.882;2022-12-05T06:18:45;55.77;;;18.67;;
70715;SDS011;59053;50.832;12.882;2022-12-05T06:23:56;62.88;;;19.80;;
70715;SDS011;59053;50.832;12.882;2022-12-05T06:26:22;61.60;;;18.47;;
70715;SDS011;59053;50.832;12.882;2022-12-05T06:28:47;56.17;;;19.60;;
70715;SDS011;59053;50.832;12.882;2022-12-05T06:31:14;58.30;;;19.23;;
70715;SDS011;59053;50.832;12.882;2022-12-05T06:33:39;55.27;;;18.60;;
70715;SDS011;59053;50.832;12.882;2022-12-05T06:36:08;55.20;;;18.03;;
70715;SDS011;59053;50.832;12.882;2022-12-05T06:38:33;56.93;;;18.87;;
70715;SDS011;59053;50.832;12.882;2022-12-05T06:40:58;54.43;;;18.07;;
70715;SDS011;59053;50.832;12.882;2022-12-05T06:43:24;62.95;;;19.10;;
70715;SDS011;59053;50.832;12.882;2022-12-05T06:45:49;65.47;;;19.97;;
70715;SDS011;59053;50.832;12.882;2022-12-05T06:48:15;62.63;;;20.30;;
70715;SDS011;59053;50.832;12.882;2022-12-05T06:50:46;62.67;;;20.03;;
70715;SDS011;59053;50.832;12.882;2022-12-05T06:53:11;62.30;;;19.30;;
70715;SDS011;59053;50.832;12.882;2022-12-05T06:55:37;56.53;;;18.83;;
70715;SDS011;59053;50.832;12.882;2022-12-05T06:58:02;62.20;;;19.60;;
70715;SDS011;59053;50.832;12.882;2022-12-05T07:00:27;62.93;;;19.67;;
70715;SDS011;59053;50.832;12.882;2022-12-05T07:03:11;64.35;;;20.05;;
70715;SDS011;59053;50.832;12.882;2022-12-05T07:05:36;58.53;;;18.77;;
70715;SDS011;59053;50.832;12.882;2022-12-05T07:08:01;59.33;;;18.83;;
70715;SDS011;59053;50.832;12.882;2022-12-05T07:10:27;61.93;;;20.07;;
70715;SDS011;59053;50.832;12.882;2022-12-05T07:12:52;62.30;;;20.20;;
70715;SDS011;59053;50.832;12.882;2022-12-05T07:15:17;55.90;;;19.00;;
70715;SDS011;59053;50.832;12.882;2022-12-05T07:17:43;58.33;;;18.93;;
70715;SDS011;59053;50.832;12.882;2022-12-05T07:20:17;60.05;;;18.95;;
70715;SDS011;59053;50.832;12.882;2022-12-05T07:22:42;63.20;;;19.47;;
70715;SDS011;59053;50.832;12.882;2022-12-05T07:25:08;62.60;;;20.57;;
70715;SDS011;59053;50.832;12.882;2022-12-05T07:27:33;60.27;;;19.73;;
70715;SDS011;59053;50.832;12.882;2022-12-05T07:29:58;59.17;;;19.30;;
70715;SDS011;59053;50.832;12.882;2022-12-05T07:32:24;53.10;;;18.33;;
70715;SDS011;59053;50.832;12.882;2022-12-05T07:34:49;53.47;;;17.33;;
70715;SDS011;59053;50.832;12.882;2022-12-05T07:37:14;52.07;;;18.67;;
70715;SDS011;59053;50.832;12.882;2022-12-05T07:39:39;56.30;;;19.30;;
70715;SDS011;59053;50.832;12.882;2022-12-05T07:42:05;53.67;;;18.83;;
70715;SDS011;59053;50.832;12.882;2022-12-05T07:44:30;52.03;;;18.47;;
70715;SDS011;59053;50.832;12.882;2022-12-05T07:46:56;49.87;;;18.10;;
70715;SDS011;59053;50.832;12.882;2022-12-05T07:49:21;52.80;;;18.15;;
70715;SDS011;59053;50.832;12.882;2022-12-05T07:51:47;51.03;;;17.97;;
70715;SDS011;59053;50.832;12.882;2022-12-05T07:54:12;50.80;;;18.13;;
70715;SDS011;59053;50.832;12.882;2022-12-05T07:56:37;49.30;;;17.63;;
70715;SDS011;59053;50.832;12.882;2022-12-05T07:59:03;48.87;;;17.50;;
70715;SDS011;59053;50.832;12.882;2022-12-05T08:01:28;47.67;;;17.40;;
70715;SDS011;59053;50.832;12.882;2022-12-05T08:03:54;50.20;;;17.43;;
70715;SDS011;59053;50.832;12.882;2022-12-05T08:06:21;54.15;;;19.40;;
70715;SDS011;59053;50.832;12.882;2022-12-05T08:08:47;55.70;;;19.33;;
70715;SDS011;59053;50.832;12.882;2022-12-05T08:11:18;62.10;;;20.10;;
70715;SDS011;59053;50.832;12.882;2022-12-05T08:13:43;54.17;;;19.52;;
70715;SDS011;59053;50.832;12.882;2022-12-05T08:16:10;58.50;;;19.83;;
70715;SDS011;59053;50.832;12.882;2022-12-05T08:18:35;51.78;;;18.40;;
70715;SDS011;59053;50.832;12.882;2022-12-05T08:21:01;58.90;;;19.30;;
70715;SDS011;59053;50.832;12.882;2022-12-05T08:23:28;61.35;;;19.10;;
70715;SDS011;59053;50.832;12.882;2022-12-05T08:25:54;60.47;;;19.70;;
70715;SDS011;59053;50.832;12.882;2022-12-05T08:28:19;56.93;;;18.83;;
70715;SDS011;59053;50.832;12.882;2022-12-05T08:30:44;56.07;;;19.53;;
70715;SDS011;59053;50.832;12.882;2022-12-05T08:33:09;56.27;;;19.83;;
70715;SDS011;59053;50.832;12.882;2022-12-05T08:35:35;58.10;;;20.13;;
70715;SDS011;59053;50.832;12.882;2022-12-05T08:38:01;54.28;;;18.60;;
70715;SDS011;59053;50.832;12.882;2022-12-05T08:40:26;60.60;;;19.27;;
70715;SDS011;59053;50.832;12.882;2022-12-05T08:42:51;63.93;;;20.43;;
70715;SDS011;59053;50.832;12.882;2022-12-05T08:45:16;61.07;;;20.80;;
70715;SDS011;59053;50.832;12.882;2022-12-05T08:47:42;64.33;;;20.47;;
70715;SDS011;59053;50.832;12.882;2022-12-05T08:50:07;66.17;;;21.07;;
70715;SDS011;59053;50.832;12.882;2022-12-05T08:52:32;67.23;;;21.40;;
70715;SDS011;59053;50.832;12.882;2022-12-05T08:54:58;65.17;;;20.83;;
70715;SDS011;59053;50.832;12.882;2022-12-05T08:57:23;60.43;;;20.37;;
70715;SDS011;59053;50.832;12.882;2022-12-05T08:59:48;64.13;;;21.30;;
70715;SDS011;59053;50.832;12.882;2022-12-05T09:02:13;57.43;;;19.93;;
70715;SDS011;59053;50.832;12.882;2022-12-05T09:04:42;57.10;;;20.20;;
70715;SDS011;59053;50.832;12.882;2022-12-05T09:07:07;58.60;;;20.13;;
70715;SDS011;59053;50.832;12.882;2022-12-05T09:09:32;60.00;;;19.97;;
70715;SDS011;59053;50.832;12.882;2022-12-05T09:11:58;60.47;;;19.52;;
70715;SDS011;59053;50.832;12.882;2022-12-05T09:14:24;54.60;;;19.45;;
70715;SDS011;59053;50.832;12.882;2022-12-05T09:16:50;50.17;;;19.67;;
70715;SDS011;59053;50.832;12.882;2022-12-05T09:19:18;54.63;;;19.97;;
70715;SDS011;59053;50.832;12.882;2022-12-05T09:21:48;50.45;;;17.90;;
70715;SDS011;59053;50.832;12.882;2022-12-05T09:24:14;51.23;;;19.47;;
70715;SDS011;59053;50.832;12.882;2022-12-05T09:26:39;54.00;;;19.20;;
70715;SDS011;59053;50.832;12.882;2022-12-05T09:29:05;52.03;;;19.13;;
70715;SDS011;59053;50.832;12.882;2022-12-05T09:31:30;49.20;;;18.60;;
70715;SDS011;59053;50.832;12.882;2022-12-05T09:33:56;51.20;;;18.13;;
70715;SDS011;59053;50.832;12.882;2022-12-05T09:36:25;50.00;;;19.50;;
70715;SDS011;59053;50.832;12.882;2022-12-05T09:38:51;54.97;;;19.45;;
70715;SDS011;59053;50.832;12.882;2022-12-05T09:44:20;50.70;;;18.90;;
70715;SDS011;59053;50.832;12.882;2022-12-05T09:46:51;52.10;;;19.92;;
70715;SDS011;59053;50.832;12.882;2022-12-05T09:49:18;59.60;;;20.77;;
70715;SDS011;59053;50.832;12.882;2022-12-05T09:51:44;54.97;;;19.75;;
70715;SDS011;59053;50.832;12.882;2022-12-05T09:54:11;52.65;;;19.73;;
70715;SDS011;59053;50.832;12.882;2022-12-05T09:56:37;54.47;;;19.93;;
70715;SDS011;59053;50.832;12.882;2022-12-05T09:59:02;55.22;;;19.70;;
70715;SDS011;59053;50.832;12.882;2022-12-05T10:01:49;56.67;;;20.20;;
70715;SDS011;59053;50.832;12.882;2022-12-05T10:07:13;52.83;;;20.15;;
70715;SDS011;59053;50.832;12.882;2022-12-05T10:17:19;57.25;;;20.63;;
70715;SDS011;59053;50.832;12.882;2022-12-05T10:19:47;57.05;;;21.52;;
70715;SDS011;59053;50.832;12.882;2022-12-05T10:25:01;59.53;;;20.98;;
70715;SDS011;59053;50.832;12.882;2022-12-05T10:27:37;55.42;;;20.58;;
70715;SDS011;59053;50.832;12.882;2022-12-05T10:30:06;54.13;;;21.25;;
70715;SDS011;59053;50.832;12.882;2022-12-05T10:32:39;53.25;;;21.00;;
70715;SDS011;59053;50.832;12.882;2022-12-05T10:35:19;50.20;;;19.40;;
70715;SDS011;59053;50.832;12.882;2022-12-05T10:37:49;53.85;;;19.60;;
70715;SDS011;59053;50.832;12.882;2022-12-05T10:40:15;53.63;;;20.40;;
70715;SDS011;59053;50.832;12.882;2022-12-05T10:42:40;50.80;;;19.57;;
70715;SDS011;59053;50.832;12.882;2022-12-05T10:45:06;51.38;;;18.85;;
70715;SDS011;59053;50.832;12.882;2022-12-05T10:47:32;48.93;;;19.30;;
70715;SDS011;59053;50.832;12.882;2022-12-05T10:49:59;46.38;;;19.13;;
70715;SDS011;59053;50.832;12.882;2022-12-05T10:52:26;49.40;;;17.52;;
70715;SDS011;59053;50.832;12.882;2022-12-05T10:54:56;32.67;;;13.47;;
70715;SDS011;59053;50.832;12.882;2022-12-05T10:57:27;31.70;;;11.20;;
70715;SDS011;59053;50.832;12.882;2022-12-05T10:59:54;20.67;;;8.68;;
70715;SDS011;59053;50.832;12.882;2022-12-05T11:02:24;16.23;;;6.85;;
70715;SDS011;59053;50.832;12.882;2022-12-05T11:04:49;14.65;;;6.43;;
70715;SDS011;59053;50.832;12.882;2022-12-05T11:07:31;16.43;;;6.47;;
70715;SDS011;59053;50.832;12.882;2022-12-05T11:10:01;13.30;;;5.68;;
70715;SDS011;59053;50.832;12.882;2022-12-05T11:12:37;14.93;;;6.20;;
70715;SDS011;59053;50.832;12.882;2022-12-05T11:15:22;15.60;;;6.20;;
70715;SDS011;59053;50.832;12.882;2022-12-05T11:17:49;13.05;;;5.93;;
70715;SDS011;59053;50.832;12.882;2022-12-05T11:22:44;16.60;;;6.35;;
70715;SDS011;59053;50.832;12.882;2022-12-05T11:27:54;15.97;;;7.10;;
70715;SDS011;59053;50.832;12.882;2022-12-05T11:30:20;17.37;;;7.50;;
70715;SDS011;59053;50.832;12.882;2022-12-05T11:32:46;17.75;;;7.78;;
70715;SDS011;59053;50.832;12.882;2022-12-05T11:40:15;17.30;;;7.68;;
70715;SDS011;59053;50.832;12.882;2022-12-05T11:50:13;20.83;;;8.13;;
70715;SDS011;59053;50.832;12.882;2022-12-05T11:52:46;21.83;;;8.97;;
70715;SDS011;59053;50.832;12.882;2022-12-05T11:55:19;21.35;;;9.45;;
70715;SDS011;59053;50.832;12.882;2022-12-05T11:57:58;21.38;;;9.05;;
70715;SDS011;59053;50.832;12.882;2022-12-05T12:00:44;19.33;;;8.52;;
70715;SDS011;59053;50.832;12.882;2022-12-05T12:08:25;25.40;;;9.82;;
70715;SDS011;59053;50.832;12.882;2022-12-05T12:13:32;23.13;;;9.40;;
70715;SDS011;59053;50.832;12.882;2022-12-05T12:23:55;23.13;;;9.65;;
70715;SDS011;59053;50.832;12.882;2022-12-05T12:31:33;21.30;;;9.13;;
70715;SDS011;59053;50.832;12.882;2022-12-05T12:36:44;21.83;;;9.63;;
70715;SDS011;59053;50.832;12.882;2022-12-05T12:44:08;23.57;;;9.20;;
70715;SDS011;59053;50.832;12.882;2022-12-05T12:49:10;22.50;;;9.70;;
70715;SDS011;59053;50.832;12.882;2022-12-05T12:51:42;25.27;;;10.13;;
70715;SDS011;59053;50.832;12.882;2022-12-05T12:54:21;24.48;;;10.20;;
70715;SDS011;59053;50.832;12.882;2022-12-05T12:59:51;24.27;;;9.73;;
70715;SDS011;59053;50.832;12.882;2022-12-05T13:02:15;25.48;;;10.13;;
70715;SDS011;59053;50.832;12.882;2022-12-05T13:04:52;24.13;;;9.47;;
70715;SDS011;59053;50.832;12.882;2022-12-05T13:07:23;23.70;;;10.13;;
70715;SDS011;59053;50.832;12.882;2022-12-05T13:09:57;25.55;;;10.77;;
70715;SDS011;59053;50.832;12.882;2022-12-05T13:12:25;25.35;;;10.23;;
70715;SDS011;59053;50.832;12.882;2022-12-05T13:14:53;25.08;;;10.50;;
70715;SDS011;59053;50.832;12.882;2022-12-05T13:17:20;28.03;;;11.03;;
70715;SDS011;59053;50.832;12.882;2022-12-05T13:19:47;24.52;;;9.75;;
70715;SDS011;59053;50.832;12.882;2022-12-05T13:22:13;23.33;;;9.70;;
70715;SDS011;59053;50.832;12.882;2022-12-05T13:24:39;26.42;;;10.40;;
70715;SDS011;59053;50.832;12.882;2022-12-05T13:27:07;22.27;;;9.38;;
70715;SDS011;59053;50.832;12.882;2022-12-05T13:29:33;21.07;;;9.40;;
70715;SDS011;59053;50.832;12.882;2022-12-05T13:32:00;21.98;;;8.77;;
70715;SDS011;59053;50.832;12.882;2022-12-05T13:36:53;20.45;;;9.30;;
70715;SDS011;59053;50.832;12.882;2022-12-05T13:39:37;20.08;;;9.32;;
70715;SDS011;59053;50.832;12.882;2022-12-05T13:42:23;19.93;;;8.80;;
70715;SDS011;59053;50.832;12.882;2022-12-05T13:44:57;20.50;;;8.65;;
70715;SDS011;59053;50.832;12.882;2022-12-05T13:50:13;20.30;;;8.30;;
70715;SDS011;59053;50.832;12.882;2022-12-05T13:52:44;16.65;;;7.50;;
70715;SDS011;59053;50.832;12.882;2022-12-05T13:55:15;16.40;;;7.40;;
70715;SDS011;59053;50.832;12.882;2022-12-05T14:07:39;18.63;;;7.93;;
70715;SDS011;59053;50.832;12.882;2022-12-05T14:10:05;18.27;;;7.35;;
70715;SDS011;59053;50.832;12.882;2022-12-05T14:12:42;15.25;;;6.90;;
70715;SDS011;59053;50.832;12.882;2022-12-05T14:17:54;21.83;;;8.23;;
70715;SDS011;59053;50.832;12.882;2022-12-05T14:23:07;24.38;;;10.18;;
70715;SDS011;59053;50.832;12.882;2022-12-05T14:30:58;87.97;;;23.00;;
70715;SDS011;59053;50.832;12.882;2022-12-05T14:33:27;107.25;;;26.90;;
70715;SDS011;59053;50.832;12.882;2022-12-05T14:35:53;61.47;;;18.37;;
70715;SDS011;59053;50.832;12.882;2022-12-05T14:38:28;30.20;;;11.67;;
70715;SDS011;59053;50.832;12.882;2022-12-05T14:40:54;28.13;;;10.30;;
70715;SDS011;59053;50.832;12.882;2022-12-05T14:43:28;22.08;;;8.85;;
70715;SDS011;59053;50.832;12.882;2022-12-05T14:50:52;20.92;;;8.48;;
70715;SDS011;59053;50.832;12.882;2022-12-05T14:56:02;19.85;;;7.78;;
70715;SDS011;59053;50.832;12.882;2022-12-05T15:01:20;19.95;;;7.80;;
70715;SDS011;59053;50.832;12.882;2022-12-05T15:03:56;19.17;;;7.95;;
70715;SDS011;59053;50.832;12.882;2022-12-05T15:06:22;22.17;;;8.23;;
70715;SDS011;59053;50.832;12.882;2022-12-05T15:08:50;18.92;;;7.85;;
70715;SDS011;59053;50.832;12.882;2022-12-05T15:11:19;21.00;;;8.30;;
70715;SDS011;59053;50.832;12.882;2022-12-05T15:13:59;19.05;;;8.23;;
70715;SDS011;59053;50.832;12.882;2022-12-05T15:16:26;19.70;;;8.13;;
70715;SDS011;59053;50.832;12.882;2022-12-05T15:18:58;18.47;;;7.33;;
70715;SDS011;59053;50.832;12.882;2022-12-05T15:24:12;16.73;;;7.45;;
70715;SDS011;59053;50.832;12.882;2022-12-05T15:26:38;18.17;;;7.70;;
70715;SDS011;59053;50.832;12.882;2022-12-05T15:31:33;17.73;;;7.57;;
70715;SDS011;59053;50.832;12.882;2022-12-05T15:34:01;17.05;;;7.00;;
70715;SDS011;59053;50.832;12.882;2022-12-05T15:36:31;17.75;;;7.63;;
70715;SDS011;59053;50.832;12.882;2022-12-05T15:38:57;29.05;;;11.75;;
70715;SDS011;59053;50.832;12.882;2022-12-05T15:41:26;25.73;;;9.32;;
70715;SDS011;59053;50.832;12.882;2022-12-05T15:43:55;24.10;;;8.63;;
70715;SDS011;59053;50.832;12.882;2022-12-05T15:46:21;24.02;;;9.30;;
70715;SDS011;59053;50.832;12.882;2022-12-05T15:48:55;24.37;;;10.30;;
70715;SDS011;59053;50.832;12.882;2022-12-05T15:51:21;23.15;;;9.73;;
70715;SDS011;59053;50.832;12.882;2022-12-05T15:53:55;25.83;;;10.52;;
70715;SDS011;59053;50.832;12.882;2022-12-05T15:56:23;25.25;;;10.35;;
70715;SDS011;59053;50.832;12.882;2022-12-05T15:58:57;23.70;;;9.93;;
70715;SDS011;59053;50.832;12.882;2022-12-05T16:01:27;24.83;;;9.63;;
70715;SDS011;59053;50.832;12.882;2022-12-05T16:04:04;26.65;;;10.32;;
70715;SDS011;59053;50.832;12.882;2022-12-05T16:09:07;27.45;;;10.13;;
70715;SDS011;59053;50.832;12.882;2022-12-05T16:11:33;25.20;;;9.77;;
70715;SDS011;59053;50.832;12.882;2022-12-05T16:14:00;25.23;;;9.23;;
70715;SDS011;59053;50.832;12.882;2022-12-05T16:16:28;27.75;;;9.75;;
70715;SDS011;59053;50.832;12.882;2022-12-05T16:18:55;27.83;;;10.52;;
70715;SDS011;59053;50.832;12.882;2022-12-05T16:21:31;25.00;;;9.70;;
70715;SDS011;59053;50.832;12.882;2022-12-05T16:26:38;27.75;;;10.07;;
70715;SDS011;59053;50.832;12.882;2022-12-05T16:29:04;24.90;;;10.13;;
70715;SDS011;59053;50.832;12.882;2022-12-05T16:31:30;24.50;;;9.80;;
70715;SDS011;59053;50.832;12.882;2022-12-05T16:33:59;28.75;;;9.90;;
70715;SDS011;59053;50.832;12.882;2022-12-05T16:36:26;25.10;;;9.82;;
70715;SDS011;59053;50.832;12.882;2022-12-05T16:38:58;27.43;;;10.00;;
70715;SDS011;59053;50.832;12.882;2022-12-05T16:41:30;28.58;;;10.15;;
70715;SDS011;59053;50.832;12.882;2022-12-05T16:43:56;26.88;;;11.07;;
70715;SDS011;59053;50.832;12.882;2022-12-05T16:51:40;26.08;;;9.27;;
70715;SDS011;59053;50.832;12.882;2022-12-05T16:54:06;24.33;;;9.32;;
70715;SDS011;59053;50.832;12.882;2022-12-05T16:56:31;22.97;;;8.90;;
70715;SDS011;59053;50.832;12.882;2022-12-05T16:59:00;23.52;;;9.65;;
70715;SDS011;59053;50.832;12.882;2022-12-05T17:01:26;24.57;;;9.60;;
70715;SDS011;59053;50.832;12.882;2022-12-05T17:03:51;25.20;;;10.23;;